createdAt,value
2017-12-16T00:01:58.970Z,0.50
2017-12-16T00:04:30.438Z,0.60
2017-12-16T00:07:00.190Z,0.60
2017-12-16T00:09:29.190Z,0.60
2017-12-16T00:11:58.245Z,0.50
2017-12-16T00:14:27.989Z,0.60
2017-12-16T00:16:56.978Z,0.50
2017-12-16T00:19:26.910Z,0.60
2017-12-16T00:21:59.710Z,0.60
2017-12-16T00:24:28.695Z,0.60
2017-12-16T00:26:58.597Z,0.60
2017-12-16T00:29:26.618Z,0.50
2017-12-16T00:31:56.585Z,0.50
2017-12-16T00:34:24.605Z,0.40
2017-12-16T00:36:52.613Z,0.50
2017-12-16T00:39:21.625Z,0.50
2017-12-16T00:41:49.617Z,0.50
2017-12-16T00:44:18.402Z,0.40
2017-12-16T00:46:46.449Z,0.40
2017-12-16T00:49:14.449Z,0.40
2017-12-16T00:51:47.021Z,0.40
2017-12-16T00:54:21.889Z,0.40
2017-12-16T00:56:49.897Z,0.40
2017-12-16T00:59:17.889Z,0.30
2017-12-16T01:01:50.324Z,0.00
2017-12-16T01:04:26.657Z,0.00
2017-12-16T01:06:58.049Z,-0.10
2017-12-16T01:09:28.057Z,-0.20
2017-12-16T01:11:58.085Z,-0.20
2017-12-16T01:14:26.109Z,-0.20
2017-12-16T01:17:02.696Z,-0.20
2017-12-16T01:19:31.689Z,-0.20
2017-12-16T01:22:01.646Z,-0.20
2017-12-16T01:24:42.685Z,-0.20
2017-12-16T01:27:11.469Z,-0.10
2017-12-16T01:29:52.317Z,-0.10
2017-12-16T01:32:21.229Z,0.00
2017-12-16T01:35:06.269Z,0.00
2017-12-16T01:37:46.229Z,0.10
2017-12-16T01:40:14.281Z,0.10
2017-12-16T01:42:48.437Z,0.20
2017-12-16T01:45:17.449Z,0.20
2017-12-16T01:47:52.969Z,0.20
2017-12-16T01:50:22.933Z,0.20
2017-12-16T01:52:58.501Z,0.20
2017-12-16T01:55:27.453Z,0.20
2017-12-16T01:58:00.101Z,0.10
2017-12-16T02:00:34.761Z,0.10
2017-12-16T02:03:02.765Z,0.00
2017-12-16T02:05:30.796Z,0.00
2017-12-16T02:08:03.280Z,0.10
2017-12-16T02:10:35.817Z,0.00
2017-12-16T02:13:07.593Z,0.10
2017-12-16T02:15:40.153Z,0.00
2017-12-16T02:18:20.693Z,0.00
2017-12-16T02:20:48.701Z,0.00
2017-12-16T02:23:20.593Z,0.00
2017-12-16T02:25:55.861Z,-0.10
2017-12-16T02:28:23.881Z,-0.10
2017-12-16T02:30:59.269Z,-0.10
2017-12-16T02:33:31.513Z,-0.10
2017-12-16T02:36:00.287Z,0.00
2017-12-16T02:38:33.045Z,-0.10
2017-12-16T02:41:01.049Z,-0.10
2017-12-16T02:43:33.541Z,0.00
2017-12-16T02:46:01.541Z,0.00
2017-12-16T02:48:30.533Z,0.10
2017-12-16T02:51:01.480Z,0.10
2017-12-16T02:53:30.260Z,0.20
2017-12-16T02:55:58.275Z,0.20
2017-12-16T02:58:28.968Z,0.20
2017-12-16T03:01:01.649Z,0.20
2017-12-16T03:03:30.672Z,0.20
2017-12-16T03:05:59.444Z,0.10
2017-12-16T03:08:27.445Z,0.10
2017-12-16T03:10:57.244Z,0.00
2017-12-16T03:13:26.029Z,0.00
2017-12-16T03:15:57.956Z,0.00
2017-12-16T03:18:33.904Z,0.10
2017-12-16T03:21:02.716Z,0.10
2017-12-16T03:23:35.372Z,0.10
2017-12-16T03:26:03.384Z,0.10
2017-12-16T03:28:33.188Z,0.10
2017-12-16T03:31:01.977Z,0.10
2017-12-16T03:33:35.369Z,0.10
2017-12-16T03:36:03.368Z,0.10
2017-12-16T03:38:35.101Z,0.10
2017-12-16T03:41:09.080Z,0.20
2017-12-16T03:43:37.125Z,0.20
2017-12-16T03:46:06.128Z,0.20
2017-12-16T03:48:48.700Z,0.20
2017-12-16T03:51:16.720Z,0.20
2017-12-16T03:53:46.738Z,0.20
2017-12-16T03:56:15.760Z,0.10
2017-12-16T03:58:45.540Z,0.10
2017-12-16T04:01:13.548Z,0.10
2017-12-16T04:03:45.608Z,0.30
2017-12-16T04:06:26.100Z,0.40
2017-12-16T04:08:54.108Z,0.40
2017-12-16T04:11:26.780Z,0.50
2017-12-16T04:14:11.992Z,0.50
2017-12-16T04:16:40.772Z,0.60
2017-12-16T04:19:21.604Z,0.50
2017-12-16T04:21:50.348Z,0.50
2017-12-16T04:24:20.112Z,0.50
2017-12-16T04:26:57.208Z,0.50
2017-12-16T04:29:33.852Z,0.50
2017-12-16T04:32:06.768Z,0.50
2017-12-16T04:34:35.724Z,0.50
2017-12-16T04:37:07.408Z,0.40
2017-12-16T04:39:36.380Z,0.40
2017-12-16T04:42:06.400Z,0.50
2017-12-16T04:44:47.734Z,0.50
2017-12-16T04:47:20.764Z,0.50
2017-12-16T04:49:48.795Z,0.50
2017-12-16T04:52:27.832Z,0.50
2017-12-16T04:54:59.840Z,0.50
2017-12-16T04:57:29.848Z,0.60
2017-12-16T04:59:59.867Z,0.60
2017-12-16T05:02:31.928Z,0.70
2017-12-16T05:04:59.965Z,0.60
2017-12-16T05:07:35.855Z,0.70
2017-12-16T05:10:26.827Z,0.70
2017-12-16T05:12:54.883Z,0.70
2017-12-16T05:15:33.004Z,0.70
2017-12-16T05:18:03.780Z,0.70
2017-12-16T05:20:39.416Z,0.70
2017-12-16T05:23:08.227Z,0.70
2017-12-16T05:25:37.196Z,0.70
2017-12-16T05:28:22.448Z,0.70
2017-12-16T05:30:52.431Z,0.70
2017-12-16T05:33:28.151Z,0.70
2017-12-16T05:35:57.125Z,0.70
2017-12-16T05:38:39.508Z,0.70
2017-12-16T05:41:08.543Z,0.70
2017-12-16T05:43:37.511Z,0.70
2017-12-16T05:46:08.767Z,0.70
2017-12-16T05:48:36.823Z,0.60
2017-12-16T05:51:04.839Z,0.60
2017-12-16T05:53:33.639Z,0.50
2017-12-16T05:56:06.776Z,0.50
2017-12-16T05:58:53.047Z,0.60
2017-12-16T06:01:21.048Z,0.50
2017-12-16T06:03:49.063Z,0.50
2017-12-16T06:06:30.771Z,0.50
2017-12-16T06:08:58.775Z,0.50
2017-12-16T06:11:36.571Z,0.50
2017-12-16T06:14:14.235Z,0.60
2017-12-16T06:16:43.282Z,0.60
2017-12-16T06:19:12.257Z,0.60
2017-12-16T06:21:47.395Z,0.60
2017-12-16T06:24:15.407Z,0.60
2017-12-16T06:26:43.419Z,0.60
2017-12-16T06:29:11.464Z,0.70
2017-12-16T06:31:46.187Z,0.70
2017-12-16T06:34:14.207Z,0.70
2017-12-16T06:36:45.950Z,0.70
2017-12-16T06:39:18.535Z,0.60
2017-12-16T06:41:47.524Z,0.70
2017-12-16T06:44:16.543Z,0.70
2017-12-16T06:46:47.243Z,0.70
2017-12-16T06:49:22.147Z,0.60
2017-12-16T06:51:58.119Z,0.60
2017-12-16T06:54:26.131Z,0.70
2017-12-16T06:56:58.887Z,0.60
2017-12-16T06:59:26.897Z,0.60
2017-12-16T07:01:56.663Z,0.60
2017-12-16T07:04:24.679Z,0.60
2017-12-16T07:06:54.358Z,0.70
2017-12-16T07:09:22.375Z,0.70
2017-12-16T07:11:53.867Z,0.70
2017-12-16T07:14:29.371Z,0.70
2017-12-16T07:17:18.337Z,0.70
2017-12-16T07:19:49.847Z,0.70
2017-12-16T07:22:19.655Z,0.70
2017-12-16T07:24:48.482Z,0.70
2017-12-16T07:27:22.026Z,0.70
2017-12-16T07:29:57.362Z,0.70
2017-12-16T07:32:26.355Z,0.70
2017-12-16T07:34:59.055Z,0.70
2017-12-16T07:37:28.859Z,0.70
2017-12-16T07:39:57.819Z,0.70
2017-12-16T07:42:26.803Z,0.60
2017-12-16T07:44:54.839Z,0.60
2017-12-16T07:47:28.587Z,0.60
2017-12-16T07:49:56.661Z,0.60
2017-12-16T07:52:25.651Z,0.60
2017-12-16T07:54:54.670Z,0.60
2017-12-16T07:57:25.394Z,0.60
2017-12-16T07:59:54.379Z,0.60
2017-12-16T08:02:30.523Z,0.60
2017-12-16T08:04:58.530Z,0.60
2017-12-16T08:07:27.315Z,0.60
2017-12-16T08:09:57.230Z,0.60
2017-12-16T08:12:27.010Z,0.70
2017-12-16T08:14:55.065Z,0.70
2017-12-16T08:17:27.063Z,0.80
2017-12-16T08:20:02.363Z,0.80
2017-12-16T08:22:30.395Z,0.90
2017-12-16T08:24:59.170Z,0.90
2017-12-16T08:27:27.946Z,1.00
2017-12-16T08:29:56.915Z,1.00
2017-12-16T08:32:25.706Z,1.10
2017-12-16T08:34:53.713Z,1.10
2017-12-16T08:37:24.427Z,1.20
2017-12-16T08:40:06.434Z,1.20
2017-12-16T08:42:35.413Z,1.20
2017-12-16T08:45:07.502Z,1.10
2017-12-16T08:47:36.267Z,1.10
2017-12-16T08:50:04.318Z,1.10
2017-12-16T08:52:57.638Z,1.10
2017-12-16T08:55:25.647Z,1.10
2017-12-16T08:57:55.391Z,1.10
2017-12-16T09:00:34.466Z,1.10
2017-12-16T09:03:04.370Z,1.10
2017-12-16T09:05:39.882Z,1.10
2017-12-16T09:08:10.569Z,1.10
2017-12-16T09:10:53.331Z,1.10
2017-12-16T09:13:37.186Z,1.20
2017-12-16T09:16:09.430Z,1.10
2017-12-16T09:18:37.438Z,1.20
2017-12-16T09:21:09.134Z,1.20
2017-12-16T09:23:38.050Z,1.20
2017-12-16T09:26:08.754Z,1.30
2017-12-16T09:28:36.769Z,1.30
2017-12-16T09:31:09.273Z,1.50
2017-12-16T09:33:37.274Z,1.50
2017-12-16T09:36:09.702Z,1.40
2017-12-16T09:38:37.701Z,1.30
2017-12-16T09:41:09.359Z,1.30
2017-12-16T09:43:38.142Z,1.20
2017-12-16T09:46:10.007Z,1.20
2017-12-16T09:48:41.765Z,1.20
2017-12-16T09:51:15.505Z,1.10
2017-12-16T09:53:50.992Z,1.10
2017-12-16T09:56:40.029Z,1.10
2017-12-16T09:59:08.042Z,1.20
2017-12-16T10:01:39.482Z,1.20
2017-12-16T10:04:28.342Z,1.20
2017-12-16T10:06:57.269Z,1.20
2017-12-16T10:09:25.288Z,1.30
2017-12-16T10:11:54.202Z,1.30
2017-12-16T10:14:25.358Z,1.40
2017-12-16T10:16:53.369Z,1.40
2017-12-16T10:19:26.906Z,1.40
2017-12-16T10:21:56.809Z,1.30
2017-12-16T10:24:24.810Z,1.30
2017-12-16T10:27:00.250Z,1.40
2017-12-16T10:29:30.254Z,1.40
2017-12-16T10:31:58.266Z,1.40
2017-12-16T10:34:30.229Z,1.20
2017-12-16T10:36:59.997Z,1.20
2017-12-16T10:39:31.558Z,1.20
2017-12-16T10:42:13.581Z,1.30
2017-12-16T10:44:46.745Z,1.70
2017-12-16T10:47:14.741Z,1.70
2017-12-16T10:49:44.506Z,2.30
2017-12-16T10:52:13.497Z,2.20
2017-12-16T10:54:48.405Z,2.30
2017-12-16T10:57:24.373Z,2.40
2017-12-16T10:59:56.226Z,2.40
2017-12-16T11:02:47.325Z,2.30
2017-12-16T11:08:13.625Z,1.90
2017-12-16T11:10:41.637Z,1.90
2017-12-16T11:13:09.637Z,1.80
2017-12-16T11:15:38.549Z,1.70
2017-12-16T11:18:12.353Z,1.60
2017-12-16T11:20:41.269Z,1.50
2017-12-16T11:23:14.710Z,1.50
2017-12-16T11:25:42.729Z,1.50
2017-12-16T11:28:10.741Z,1.50
2017-12-16T11:30:42.976Z,1.60
2017-12-16T11:33:13.677Z,1.80
2017-12-16T11:35:42.680Z,1.80
2017-12-16T11:38:12.713Z,1.80
2017-12-16T11:40:41.489Z,1.70
2017-12-16T11:43:10.397Z,1.70
2017-12-16T11:45:40.213Z,1.80
2017-12-16T11:48:09.989Z,1.80
2017-12-16T11:50:38.029Z,1.80
2017-12-16T11:53:09.709Z,1.80
2017-12-16T11:55:50.845Z,1.80
2017-12-16T11:58:22.969Z,2.00
2017-12-16T12:00:51.958Z,2.10
2017-12-16T12:03:19.949Z,2.00
2017-12-16T12:05:56.045Z,2.20
2017-12-16T12:08:24.057Z,2.20
2017-12-16T12:10:53.993Z,2.40
2017-12-16T12:13:23.813Z,2.50
2017-12-16T12:15:56.241Z,2.50
2017-12-16T12:18:26.269Z,2.70
2017-12-16T12:20:55.176Z,2.70
2017-12-16T12:23:31.921Z,2.60
2017-12-16T12:26:16.249Z,2.60
2017-12-16T12:28:48.178Z,2.60
2017-12-16T12:31:16.234Z,2.50
2017-12-16T12:33:53.264Z,2.50
2017-12-16T12:36:27.096Z,2.50
2017-12-16T12:38:56.093Z,2.50
2017-12-16T12:41:28.765Z,2.50
2017-12-16T12:43:56.821Z,2.60
2017-12-16T12:46:25.681Z,2.40
2017-12-16T12:48:55.584Z,2.40
2017-12-16T12:51:23.685Z,2.30
2017-12-16T12:53:51.676Z,2.30
2017-12-16T12:56:20.665Z,2.20
2017-12-16T12:58:48.689Z,2.30
2017-12-16T13:01:16.725Z,2.20
2017-12-16T13:03:44.737Z,2.10
2017-12-16T13:06:13.677Z,2.10
2017-12-16T13:08:43.705Z,2.20
2017-12-16T13:11:11.728Z,2.20
2017-12-16T13:13:40.708Z,2.20
2017-12-16T13:16:08.764Z,2.10
2017-12-16T13:18:38.520Z,2.00
2017-12-16T13:21:07.344Z,1.90
2017-12-16T13:23:38.556Z,1.90
2017-12-16T13:26:08.588Z,1.90
2017-12-16T13:28:37.524Z,1.90
2017-12-16T13:31:08.320Z,1.90
2017-12-16T13:33:37.089Z,1.90
2017-12-16T13:36:05.114Z,1.90
2017-12-16T13:38:33.156Z,1.90
2017-12-16T13:41:01.957Z,1.90
2017-12-16T13:43:30.736Z,1.90
2017-12-16T13:45:59.512Z,1.90
2017-12-16T13:48:29.184Z,1.90
2017-12-16T13:50:57.197Z,1.90
2017-12-16T13:53:27.876Z,1.80
2017-12-16T13:55:55.880Z,1.80
2017-12-16T13:58:31.828Z,2.00
2017-12-16T14:00:59.847Z,1.90
2017-12-16T14:03:27.851Z,2.70
2017-12-16T14:05:55.876Z,4.10
2017-12-16T14:08:23.888Z,5.00
2017-12-16T14:10:51.899Z,5.00
2017-12-16T14:13:25.716Z,4.20
2017-12-16T14:15:55.529Z,3.80
2017-12-16T14:18:29.400Z,3.20
2017-12-16T14:20:59.416Z,3.10
2017-12-16T14:23:31.168Z,2.40
2017-12-16T14:26:05.580Z,1.90
2017-12-16T14:28:33.607Z,1.50
2017-12-16T14:31:03.568Z,1.20
2017-12-16T14:33:31.588Z,0.90
2017-12-16T14:36:00.364Z,0.70
2017-12-16T14:38:29.136Z,0.70
2017-12-16T14:40:58.088Z,0.70
2017-12-16T14:43:26.104Z,0.70
2017-12-16T14:45:55.095Z,0.40
2017-12-16T14:48:24.055Z,0.40
2017-12-16T14:50:52.056Z,0.30
2017-12-16T14:53:20.839Z,0.50
2017-12-16T14:55:48.839Z,0.50
2017-12-16T14:58:20.127Z,0.60
2017-12-16T15:00:54.316Z,0.60
2017-12-16T15:03:22.733Z,0.70
2017-12-16T15:05:52.631Z,0.60
2017-12-16T15:08:20.647Z,0.50
2017-12-16T15:10:48.667Z,0.30
2017-12-16T15:13:22.743Z,0.20
2017-12-16T15:15:50.779Z,0.20
2017-12-16T15:18:26.219Z,0.10
2017-12-16T15:20:54.248Z,0.10
2017-12-16T15:23:23.156Z,0.10
2017-12-16T15:25:54.708Z,0.10
2017-12-16T15:28:24.444Z,0.20
2017-12-16T15:30:52.455Z,0.20
2017-12-16T15:33:20.482Z,0.30
2017-12-16T15:35:49.384Z,0.30
2017-12-16T15:38:19.147Z,0.40
2017-12-16T15:40:49.083Z,0.40
2017-12-16T15:43:21.744Z,0.40
2017-12-16T15:45:55.395Z,0.40
2017-12-16T15:48:24.155Z,0.40
2017-12-16T15:50:55.787Z,0.40
2017-12-16T15:53:29.487Z,0.40
2017-12-16T15:55:59.515Z,0.40
2017-12-16T15:58:29.524Z,0.50
2017-12-16T16:00:59.551Z,0.50
2017-12-16T16:03:28.531Z,0.50
2017-12-16T16:05:57.526Z,0.50
2017-12-16T16:08:29.183Z,0.50
2017-12-16T16:11:07.659Z,0.50
2017-12-16T16:13:36.791Z,0.50
2017-12-16T16:16:13.118Z,0.50
2017-12-16T16:18:45.034Z,0.50
2017-12-16T16:21:14.003Z,0.50
2017-12-16T16:23:48.451Z,0.50
2017-12-16T16:26:21.411Z,0.50
2017-12-16T16:28:53.375Z,0.50
2017-12-16T16:31:45.063Z,0.50
2017-12-16T16:34:24.527Z,0.50
2017-12-16T16:36:52.531Z,0.50
2017-12-16T16:39:20.534Z,0.50
2017-12-16T16:41:54.099Z,0.50
2017-12-16T16:44:25.835Z,0.60
2017-12-16T16:46:54.843Z,0.60
2017-12-16T16:49:44.698Z,0.60
2017-12-16T16:52:19.107Z,0.60
2017-12-16T16:54:52.793Z,0.60
2017-12-16T16:57:24.714Z,0.70
2017-12-16T16:59:53.987Z,0.60
2017-12-16T17:02:28.679Z,0.60
2017-12-16T17:04:57.592Z,0.60
2017-12-16T17:07:40.687Z,0.60
2017-12-16T17:10:12.874Z,0.70
2017-12-16T17:12:40.891Z,0.60
2017-12-16T17:15:10.659Z,0.60
2017-12-16T17:17:43.283Z,0.60
2017-12-16T17:20:13.262Z,0.60
2017-12-16T17:22:44.625Z,0.70
2017-12-16T17:25:14.630Z,0.60
2017-12-16T17:27:43.602Z,0.60
2017-12-16T17:30:16.910Z,0.60
2017-12-16T17:32:46.923Z,0.60
2017-12-16T17:35:26.368Z,0.60
2017-12-16T17:37:59.042Z,0.50
2017-12-16T17:40:27.079Z,0.50
2017-12-16T17:42:58.058Z,0.50
2017-12-16T17:45:26.062Z,0.50
2017-12-16T17:47:54.846Z,0.50
2017-12-16T17:50:25.526Z,0.50
2017-12-16T17:52:55.470Z,0.50
2017-12-16T17:55:28.950Z,0.50
2017-12-16T17:58:02.486Z,0.50
2017-12-16T18:00:32.255Z,0.40
2017-12-16T18:03:07.390Z,0.40
2017-12-16T18:05:35.394Z,0.40
2017-12-16T18:08:06.075Z,0.40
2017-12-16T18:10:35.159Z,0.40
2017-12-16T18:13:04.082Z,0.40
2017-12-16T18:15:34.005Z,0.40
2017-12-16T18:18:02.023Z,0.40
2017-12-16T18:20:33.818Z,0.40
2017-12-16T18:23:03.742Z,0.40
2017-12-16T18:25:31.775Z,0.40
2017-12-16T18:28:01.527Z,0.40
2017-12-16T18:30:30.438Z,0.40
2017-12-16T18:33:01.147Z,0.30
2017-12-16T18:35:30.142Z,0.30
2017-12-16T18:38:04.602Z,0.30
2017-12-16T18:40:38.346Z,0.30
2017-12-16T18:43:09.506Z,0.30
2017-12-16T18:45:43.179Z,0.30
2017-12-16T18:48:15.979Z,0.30
2017-12-16T18:50:44.018Z,0.40
2017-12-16T18:53:19.203Z,0.40
2017-12-16T18:55:47.234Z,0.40
2017-12-16T18:58:16.162Z,0.50
2017-12-16T19:00:46.166Z,0.50
2017-12-16T19:03:14.294Z,0.50
2017-12-16T19:05:42.274Z,0.60
2017-12-16T19:08:11.198Z,0.60
2017-12-16T19:10:39.230Z,0.60
2017-12-16T19:13:08.130Z,0.60
2017-12-16T19:15:36.142Z,0.60
2017-12-16T19:18:08.184Z,0.60
2017-12-16T19:20:36.214Z,0.60
2017-12-16T19:23:04.231Z,0.60
2017-12-16T19:25:32.262Z,0.60
2017-12-16T19:28:01.202Z,0.60
2017-12-16T19:30:29.246Z,0.60
2017-12-16T19:32:59.224Z,0.60
2017-12-16T19:35:28.082Z,0.60
2017-12-16T19:37:59.137Z,0.60
2017-12-16T19:40:28.976Z,0.60
2017-12-16T19:43:03.330Z,0.60
2017-12-16T19:45:32.326Z,0.60
2017-12-16T19:48:01.334Z,0.60
2017-12-16T19:50:38.722Z,0.60
2017-12-16T19:53:07.719Z,0.60
2017-12-16T19:55:35.726Z,0.60
2017-12-16T19:58:03.766Z,0.60
2017-12-16T20:00:31.774Z,0.60
2017-12-16T20:03:00.704Z,0.60
2017-12-16T20:05:30.746Z,0.70
2017-12-16T20:08:02.886Z,0.60
2017-12-16T20:10:34.666Z,0.60
2017-12-16T20:13:03.625Z,0.70
2017-12-16T20:15:37.534Z,0.60
2017-12-16T20:18:06.534Z,0.70
2017-12-16T20:20:51.564Z,0.60
2017-12-16T20:23:19.610Z,0.60
2017-12-16T20:25:48.557Z,0.60
2017-12-16T20:28:18.489Z,0.60
2017-12-16T20:30:48.481Z,0.60
2017-12-16T20:33:27.302Z,0.60
2017-12-16T20:36:06.130Z,0.50
2017-12-16T20:38:39.646Z,0.40
2017-12-16T20:41:07.665Z,0.40
2017-12-16T20:43:36.594Z,0.40
2017-12-16T20:46:08.433Z,0.30
2017-12-16T20:48:37.381Z,0.30
2017-12-16T20:51:08.089Z,0.30
2017-12-16T20:53:36.985Z,0.30
2017-12-16T20:56:06.046Z,0.40
2017-12-16T20:58:35.690Z,0.40
2017-12-16T21:01:03.709Z,0.30
2017-12-16T21:03:32.802Z,0.30
2017-12-16T21:06:01.577Z,0.20
2017-12-16T21:08:29.586Z,0.20
2017-12-16T21:10:57.599Z,0.20
2017-12-16T21:13:30.533Z,0.40
2017-12-16T21:15:59.545Z,0.30
2017-12-16T21:18:31.097Z,0.40
2017-12-16T21:21:02.558Z,0.40
2017-12-16T21:23:31.561Z,0.40
2017-12-16T21:26:02.745Z,0.40
2017-12-16T21:28:30.861Z,0.40
2017-12-16T21:31:00.765Z,0.40
2017-12-16T21:33:28.789Z,0.40
2017-12-16T21:36:00.821Z,0.40
2017-12-16T21:38:28.825Z,0.40
2017-12-16T21:40:58.763Z,0.30
2017-12-16T21:43:28.681Z,0.30
2017-12-16T21:45:57.689Z,0.20
2017-12-16T21:48:25.706Z,0.20
2017-12-16T21:50:53.749Z,0.10
2017-12-16T21:53:25.688Z,0.10
2017-12-16T21:55:59.413Z,0.20
2017-12-16T21:58:28.388Z,0.30
2017-12-16T22:00:57.381Z,0.30
2017-12-16T22:03:27.409Z,0.40
2017-12-16T22:05:56.432Z,0.40
2017-12-16T22:08:24.465Z,0.40
2017-12-16T22:10:52.488Z,0.50
2017-12-16T22:13:20.521Z,0.50
2017-12-16T22:15:49.428Z,0.50
2017-12-16T22:18:23.809Z,0.60
2017-12-16T22:20:51.849Z,0.50
2017-12-16T22:23:20.929Z,0.60
2017-12-16T22:25:48.957Z,0.60
2017-12-16T22:28:17.941Z,0.60
2017-12-16T22:30:45.990Z,0.60
2017-12-16T22:33:14.045Z,0.60
2017-12-16T22:35:46.533Z,0.60
2017-12-16T22:38:16.521Z,0.70
2017-12-16T22:40:44.544Z,0.70
2017-12-16T22:43:13.441Z,0.70
2017-12-16T22:45:44.644Z,0.70
2017-12-16T22:48:14.601Z,0.70
2017-12-16T22:50:43.576Z,0.70
2017-12-16T22:53:18.704Z,0.70
2017-12-16T22:55:46.712Z,0.70
2017-12-16T22:58:18.652Z,0.70
2017-12-16T23:00:46.665Z,0.70
2017-12-16T23:03:15.597Z,0.70
2017-12-16T23:05:43.617Z,0.70
2017-12-16T23:08:12.396Z,0.70
2017-12-16T23:10:41.197Z,0.70
2017-12-16T23:13:09.233Z,0.70
2017-12-16T23:15:37.243Z,0.70
2017-12-16T23:18:05.261Z,0.70
2017-12-16T23:20:34.205Z,0.70
2017-12-16T23:23:03.132Z,0.70
2017-12-16T23:25:33.144Z,0.60
2017-12-16T23:28:01.184Z,0.60
2017-12-16T23:30:31.144Z,0.60
2017-12-16T23:33:10.831Z,0.60
2017-12-16T23:35:38.880Z,0.60
2017-12-16T23:38:08.668Z,0.60
2017-12-16T23:40:37.668Z,0.60
2017-12-16T23:43:06.576Z,0.60
2017-12-16T23:45:42.280Z,0.60
2017-12-16T23:48:16.060Z,0.60
2017-12-16T23:50:45.056Z,0.60
2017-12-16T23:53:14.094Z,0.60
2017-12-16T23:55:43.093Z,0.50
2017-12-16T23:58:15.904Z,0.60
